sensor_id;sensor_type;location;lat;lon;timestamp;temperature;humidity
23597;DHT22;40226;50.874;4.394;2023-05-07T00:00:03;18.70;1.00
23597;DHT22;40226;50.874;4.394;2023-05-07T00:02:32;18.50;1.00
23597;DHT22;40226;50.874;4.394;2023-05-07T00:04:57;18.50;1.00
23597;DHT22;40226;50.874;4.394;2023-05-07T00:07:23;18.40;1.00
23597;DHT22;40226;50.874;4.394;2023-05-07T00:09:49;18.50;1.00
23597;DHT22;40226;50.874;4.394;2023-05-07T00:12:15;18.50;1.00
23597;DHT22;40226;50.874;4.394;2023-05-07T00:14:41;18.40;1.00
23597;DHT22;40226;50.874;4.394;2023-05-07T00:17:06;18.40;1.00
23597;DHT22;40226;50.874;4.394;2023-05-07T00:19:32;18.20;1.00
23597;DHT22;40226;50.874;4.394;2023-05-07T00:21:58;18.40;1.00
23597;DHT22;40226;50.874;4.394;2023-05-07T00:24:24;18.50;1.00
23597;DHT22;40226;50.874;4.394;2023-05-07T00:26:50;18.60;1.00
23597;DHT22;40226;50.874;4.394;2023-05-07T00:29:15;18.60;1.00
23597;DHT22;40226;50.874;4.394;2023-05-07T00:31:41;18.50;1.00
23597;DHT22;40226;50.874;4.394;2023-05-07T00:34:07;18.40;1.00
23597;DHT22;40226;50.874;4.394;2023-05-07T00:36:32;18.50;1.00
23597;DHT22;40226;50.874;4.394;2023-05-07T00:38:59;18.60;1.00
23597;DHT22;40226;50.874;4.394;2023-05-07T00:41:26;18.70;1.00
23597;DHT22;40226;50.874;4.394;2023-05-07T00:43:52;18.80;1.00
23597;DHT22;40226;50.874;4.394;2023-05-07T00:46:20;18.80;1.00
23597;DHT22;40226;50.874;4.394;2023-05-07T00:48:45;18.70;1.00
23597;DHT22;40226;50.874;4.394;2023-05-07T00:51:12;18.70;1.00
23597;DHT22;40226;50.874;4.394;2023-05-07T00:53:38;18.60;1.00
23597;DHT22;40226;50.874;4.394;2023-05-07T00:56:04;18.70;1.00
23597;DHT22;40226;50.874;4.394;2023-05-07T00:58:32;18.40;1.00
23597;DHT22;40226;50.874;4.394;2023-05-07T01:00:58;18.30;1.00
23597;DHT22;40226;50.874;4.394;2023-05-07T01:03:23;18.30;1.00
23597;DHT22;40226;50.874;4.394;2023-05-07T01:05:49;18.50;1.00
23597;DHT22;40226;50.874;4.394;2023-05-07T01:08:16;18.50;1.00
23597;DHT22;40226;50.874;4.394;2023-05-07T01:10:42;18.50;1.00
23597;DHT22;40226;50.874;4.394;2023-05-07T01:13:09;18.50;1.00
23597;DHT22;40226;50.874;4.394;2023-05-07T01:15:36;18.50;1.00
23597;DHT22;40226;50.874;4.394;2023-05-07T01:18:02;18.60;1.00
23597;DHT22;40226;50.874;4.394;2023-05-07T01:20:28;18.50;1.00
23597;DHT22;40226;50.874;4.394;2023-05-07T01:22:54;18.50;1.00
23597;DHT22;40226;50.874;4.394;2023-05-07T01:25:20;18.40;1.00
23597;DHT22;40226;50.874;4.394;2023-05-07T01:27:47;18.30;1.00
23597;DHT22;40226;50.874;4.394;2023-05-07T01:30:13;18.40;1.00
23597;DHT22;40226;50.874;4.394;2023-05-07T01:32:52;18.30;1.00
23597;DHT22;40226;50.874;4.394;2023-05-07T01:35:20;18.40;1.00
23597;DHT22;40226;50.874;4.394;2023-05-07T01:37:48;18.40;1.00
23597;DHT22;40226;50.874;4.394;2023-05-07T01:40:14;18.40;1.00
23597;DHT22;40226;50.874;4.394;2023-05-07T01:42:42;18.20;1.00
23597;DHT22;40226;50.874;4.394;2023-05-07T01:45:08;18.00;1.00
23597;DHT22;40226;50.874;4.394;2023-05-07T01:47:36;17.80;1.00
23597;DHT22;40226;50.874;4.394;2023-05-07T01:50:01;17.70;1.00
23597;DHT22;40226;50.874;4.394;2023-05-07T01:52:27;17.80;1.00
23597;DHT22;40226;50.874;4.394;2023-05-07T01:54:53;17.80;1.00
23597;DHT22;40226;50.874;4.394;2023-05-07T01:57:19;18.00;1.00
23597;DHT22;40226;50.874;4.394;2023-05-07T01:59:45;18.10;1.00
23597;DHT22;40226;50.874;4.394;2023-05-07T02:02:10;18.00;1.00
23597;DHT22;40226;50.874;4.394;2023-05-07T02:04:36;17.90;1.00
23597;DHT22;40226;50.874;4.394;2023-05-07T02:07:02;18.00;1.00
23597;DHT22;40226;50.874;4.394;2023-05-07T02:09:27;18.00;1.00
23597;DHT22;40226;50.874;4.394;2023-05-07T02:11:53;18.10;1.00
23597;DHT22;40226;50.874;4.394;2023-05-07T02:14:19;18.20;1.00
23597;DHT22;40226;50.874;4.394;2023-05-07T02:16:45;18.20;1.00
23597;DHT22;40226;50.874;4.394;2023-05-07T02:19:12;18.10;1.00
23597;DHT22;40226;50.874;4.394;2023-05-07T02:21:38;17.90;1.00
23597;DHT22;40226;50.874;4.394;2023-05-07T02:24:04;17.70;1.00
23597;DHT22;40226;50.874;4.394;2023-05-07T02:26:29;17.60;1.00
23597;DHT22;40226;50.874;4.394;2023-05-07T02:28:55;17.60;1.00
23597;DHT22;40226;50.874;4.394;2023-05-07T02:31:24;17.50;1.00
23597;DHT22;40226;50.874;4.394;2023-05-07T02:33:50;17.40;1.00
23597;DHT22;40226;50.874;4.394;2023-05-07T02:36:16;17.40;1.00
23597;DHT22;40226;50.874;4.394;2023-05-07T02:38:41;17.40;1.00
23597;DHT22;40226;50.874;4.394;2023-05-07T02:41:07;17.40;1.00
23597;DHT22;40226;50.874;4.394;2023-05-07T02:43:33;17.40;1.00
23597;DHT22;40226;50.874;4.394;2023-05-07T02:46:06;17.40;1.00
23597;DHT22;40226;50.874;4.394;2023-05-07T02:48:33;17.30;3.40
23597;DHT22;40226;50.874;4.394;2023-05-07T02:50:59;17.40;12.90
23597;DHT22;40226;50.874;4.394;2023-05-07T02:53:25;17.40;10.50
23597;DHT22;40226;50.874;4.394;2023-05-07T02:55:59;17.60;6.40
23597;DHT22;40226;50.874;4.394;2023-05-07T02:58:25;17.70;1.00
23597;DHT22;40226;50.874;4.394;2023-05-07T03:00:51;17.70;1.00
23597;DHT22;40226;50.874;4.394;2023-05-07T03:03:17;17.90;1.00
23597;DHT22;40226;50.874;4.394;2023-05-07T03:05:43;18.00;1.00
23597;DHT22;40226;50.874;4.394;2023-05-07T03:08:09;18.00;1.00
23597;DHT22;40226;50.874;4.394;2023-05-07T03:10:36;17.80;1.00
23597;DHT22;40226;50.874;4.394;2023-05-07T03:13:02;17.80;1.00
23597;DHT22;40226;50.874;4.394;2023-05-07T03:15:27;17.80;1.00
23597;DHT22;40226;50.874;4.394;2023-05-07T03:17:53;17.70;1.00
23597;DHT22;40226;50.874;4.394;2023-05-07T03:20:19;17.50;1.00
23597;DHT22;40226;50.874;4.394;2023-05-07T03:22:44;17.50;1.00
23597;DHT22;40226;50.874;4.394;2023-05-07T03:25:10;17.40;1.00
23597;DHT22;40226;50.874;4.394;2023-05-07T03:27:36;17.40;1.00
23597;DHT22;40226;50.874;4.394;2023-05-07T03:30:02;17.40;1.00
23597;DHT22;40226;50.874;4.394;2023-05-07T03:32:28;17.30;2.20
23597;DHT22;40226;50.874;4.394;2023-05-07T03:34:53;17.50;1.00
23597;DHT22;40226;50.874;4.394;2023-05-07T03:37:21;17.60;1.00
23597;DHT22;40226;50.874;4.394;2023-05-07T03:39:47;17.60;1.00
23597;DHT22;40226;50.874;4.394;2023-05-07T03:42:13;17.80;1.00
23597;DHT22;40226;50.874;4.394;2023-05-07T03:44:38;18.00;1.00
23597;DHT22;40226;50.874;4.394;2023-05-07T03:47:04;17.80;1.00
23597;DHT22;40226;50.874;4.394;2023-05-07T03:49:30;17.90;1.00
23597;DHT22;40226;50.874;4.394;2023-05-07T03:51:55;18.10;1.00
23597;DHT22;40226;50.874;4.394;2023-05-07T03:54:21;18.10;1.00
23597;DHT22;40226;50.874;4.394;2023-05-07T03:56:47;17.90;1.00
23597;DHT22;40226;50.874;4.394;2023-05-07T03:59:13;17.80;1.00
23597;DHT22;40226;50.874;4.394;2023-05-07T04:01:40;17.70;1.00
23597;DHT22;40226;50.874;4.394;2023-05-07T04:04:06;17.60;1.00
23597;DHT22;40226;50.874;4.394;2023-05-07T04:06:31;17.80;1.00
23597;DHT22;40226;50.874;4.394;2023-05-07T04:08:57;17.60;1.00
23597;DHT22;40226;50.874;4.394;2023-05-07T04:11:23;17.50;1.00
23597;DHT22;40226;50.874;4.394;2023-05-07T04:13:48;17.50;1.00
23597;DHT22;40226;50.874;4.394;2023-05-07T04:16:14;17.40;8.20
23597;DHT22;40226;50.874;4.394;2023-05-07T04:18:41;17.50;1.80
23597;DHT22;40226;50.874;4.394;2023-05-07T04:21:17;17.50;1.00
23597;DHT22;40226;50.874;4.394;2023-05-07T04:23:43;17.70;1.00
23597;DHT22;40226;50.874;4.394;2023-05-07T04:26:09;17.70;1.00
23597;DHT22;40226;50.874;4.394;2023-05-07T04:28:35;17.70;1.00
23597;DHT22;40226;50.874;4.394;2023-05-07T04:31:00;17.80;1.00
23597;DHT22;40226;50.874;4.394;2023-05-07T04:33:26;17.70;1.00
23597;DHT22;40226;50.874;4.394;2023-05-07T04:35:52;17.70;1.00
23597;DHT22;40226;50.874;4.394;2023-05-07T04:38:17;17.80;1.00
23597;DHT22;40226;50.874;4.394;2023-05-07T04:40:44;17.70;1.00
23597;DHT22;40226;50.874;4.394;2023-05-07T04:43:10;17.90;1.00
23597;DHT22;40226;50.874;4.394;2023-05-07T04:45:36;17.80;1.00
23597;DHT22;40226;50.874;4.394;2023-05-07T04:48:02;17.80;1.00
23597;DHT22;40226;50.874;4.394;2023-05-07T04:50:27;17.80;1.00
23597;DHT22;40226;50.874;4.394;2023-05-07T04:52:53;17.60;22.90
23597;DHT22;40226;50.874;4.394;2023-05-07T04:55:19;17.70;14.20
23597;DHT22;40226;50.874;4.394;2023-05-07T04:57:44;17.60;25.10
23597;DHT22;40226;50.874;4.394;2023-05-07T05:00:11;17.60;25.60
23597;DHT22;40226;50.874;4.394;2023-05-07T05:02:39;17.80;18.70
23597;DHT22;40226;50.874;4.394;2023-05-07T05:05:06;17.80;17.60
23597;DHT22;40226;50.874;4.394;2023-05-07T05:07:32;17.80;19.80
23597;DHT22;40226;50.874;4.394;2023-05-07T05:09:58;17.70;29.10
23597;DHT22;40226;50.874;4.394;2023-05-07T05:12:23;17.80;25.80
23597;DHT22;40226;50.874;4.394;2023-05-07T05:14:49;18.00;19.20
23597;DHT22;40226;50.874;4.394;2023-05-07T05:17:15;18.10;6.90
23597;DHT22;40226;50.874;4.394;2023-05-07T05:19:40;18.00;9.60
23597;DHT22;40226;50.874;4.394;2023-05-07T05:22:06;18.10;15.20
23597;DHT22;40226;50.874;4.394;2023-05-07T05:24:32;18.20;6.50
23597;DHT22;40226;50.874;4.394;2023-05-07T05:26:58;18.20;14.60
23597;DHT22;40226;50.874;4.394;2023-05-07T05:29:26;18.10;16.10
23597;DHT22;40226;50.874;4.394;2023-05-07T05:31:52;18.30;17.70
23597;DHT22;40226;50.874;4.394;2023-05-07T05:34:17;18.40;12.50
23597;DHT22;40226;50.874;4.394;2023-05-07T05:36:45;18.50;4.00
23597;DHT22;40226;50.874;4.394;2023-05-07T05:39:11;18.30;15.70
23597;DHT22;40226;50.874;4.394;2023-05-07T05:41:36;18.40;10.30
23597;DHT22;40226;50.874;4.394;2023-05-07T05:44:02;18.30;16.00
23597;DHT22;40226;50.874;4.394;2023-05-07T05:46:28;18.60;1.00
23597;DHT22;40226;50.874;4.394;2023-05-07T05:48:53;18.40;5.50
23597;DHT22;40226;50.874;4.394;2023-05-07T05:51:20;18.20;19.20
23597;DHT22;40226;50.874;4.394;2023-05-07T05:53:46;18.20;19.50
23597;DHT22;40226;50.874;4.394;2023-05-07T05:56:12;18.30;9.90
23597;DHT22;40226;50.874;4.394;2023-05-07T05:58:38;18.70;1.00
23597;DHT22;40226;50.874;4.394;2023-05-07T06:01:04;18.60;1.00
23597;DHT22;40226;50.874;4.394;2023-05-07T06:03:30;18.60;1.00
23597;DHT22;40226;50.874;4.394;2023-05-07T06:05:57;18.70;1.00
23597;DHT22;40226;50.874;4.394;2023-05-07T06:08:23;18.70;1.00
23597;DHT22;40226;50.874;4.394;2023-05-07T06:10:49;18.40;1.00
23597;DHT22;40226;50.874;4.394;2023-05-07T06:13:15;18.40;1.00
23597;DHT22;40226;50.874;4.394;2023-05-07T06:15:40;18.00;1.00
23597;DHT22;40226;50.874;4.394;2023-05-07T06:18:06;17.70;1.00
23597;DHT22;40226;50.874;4.394;2023-05-07T06:20:31;17.30;4.70
23597;DHT22;40226;50.874;4.394;2023-05-07T06:22:57;17.10;11.50
23597;DHT22;40226;50.874;4.394;2023-05-07T06:25:23;16.90;40.60
23597;DHT22;40226;50.874;4.394;2023-05-07T06:27:52;16.90;46.60
23597;DHT22;40226;50.874;4.394;2023-05-07T06:30:18;16.90;46.90
23597;DHT22;40226;50.874;4.394;2023-05-07T06:32:43;17.10;48.50
23597;DHT22;40226;50.874;4.394;2023-05-07T06:35:09;17.40;27.00
23597;DHT22;40226;50.874;4.394;2023-05-07T06:37:35;17.30;30.00
23597;DHT22;40226;50.874;4.394;2023-05-07T06:40:00;17.00;61.80
23597;DHT22;40226;50.874;4.394;2023-05-07T06:42:26;16.80;80.80
23597;DHT22;40226;50.874;4.394;2023-05-07T06:44:54;16.90;83.00
23597;DHT22;40226;50.874;4.394;2023-05-07T06:47:20;17.00;79.00
23597;DHT22;40226;50.874;4.394;2023-05-07T06:49:46;17.10;80.40
23597;DHT22;40226;50.874;4.394;2023-05-07T06:52:11;17.30;69.40
23597;DHT22;40226;50.874;4.394;2023-05-07T06:54:37;17.20;68.30
23597;DHT22;40226;50.874;4.394;2023-05-07T06:57:02;17.10;79.60
23597;DHT22;40226;50.874;4.394;2023-05-07T06:59:28;17.50;73.70
23597;DHT22;40226;50.874;4.394;2023-05-07T07:01:55;17.50;63.30
23597;DHT22;40226;50.874;4.394;2023-05-07T07:04:21;17.70;56.90
23597;DHT22;40226;50.874;4.394;2023-05-07T07:06:48;17.60;72.60
23597;DHT22;40226;50.874;4.394;2023-05-07T07:09:14;17.50;90.00
23597;DHT22;40226;50.874;4.394;2023-05-07T07:11:39;17.60;83.80
23597;DHT22;40226;50.874;4.394;2023-05-07T07:14:05;17.40;94.90
23597;DHT22;40226;50.874;4.394;2023-05-07T07:16:31;17.30;99.90
23597;DHT22;40226;50.874;4.394;2023-05-07T07:18:56;17.00;99.90
23597;DHT22;40226;50.874;4.394;2023-05-07T07:21:22;17.00;99.90
23597;DHT22;40226;50.874;4.394;2023-05-07T07:23:47;17.00;99.90
23597;DHT22;40226;50.874;4.394;2023-05-07T07:26:13;17.10;99.90
23597;DHT22;40226;50.874;4.394;2023-05-07T07:28:43;17.00;99.90
23597;DHT22;40226;50.874;4.394;2023-05-07T07:31:09;16.90;99.90
23597;DHT22;40226;50.874;4.394;2023-05-07T07:33:35;16.90;99.90
23597;DHT22;40226;50.874;4.394;2023-05-07T07:36:00;17.10;99.90
23597;DHT22;40226;50.874;4.394;2023-05-07T07:38:26;17.10;99.90
23597;DHT22;40226;50.874;4.394;2023-05-07T07:40:52;17.20;99.90
23597;DHT22;40226;50.874;4.394;2023-05-07T07:43:17;17.10;99.90
23597;DHT22;40226;50.874;4.394;2023-05-07T07:45:43;17.20;99.90
23597;DHT22;40226;50.874;4.394;2023-05-07T07:48:09;17.20;99.90
23597;DHT22;40226;50.874;4.394;2023-05-07T07:50:34;17.30;99.90
23597;DHT22;40226;50.874;4.394;2023-05-07T07:53:00;17.00;99.90
23597;DHT22;40226;50.874;4.394;2023-05-07T07:55:26;16.90;99.90
23597;DHT22;40226;50.874;4.394;2023-05-07T07:57:52;17.00;99.90
23597;DHT22;40226;50.874;4.394;2023-05-07T08:00:18;17.00;99.90
23597;DHT22;40226;50.874;4.394;2023-05-07T08:02:44;16.80;99.90
23597;DHT22;40226;50.874;4.394;2023-05-07T08:05:10;16.70;99.90
23597;DHT22;40226;50.874;4.394;2023-05-07T08:07:35;16.70;99.90
23597;DHT22;40226;50.874;4.394;2023-05-07T08:10:01;16.70;99.90
23597;DHT22;40226;50.874;4.394;2023-05-07T08:12:27;16.90;99.90
23597;DHT22;40226;50.874;4.394;2023-05-07T08:14:53;17.30;99.90
23597;DHT22;40226;50.874;4.394;2023-05-07T08:17:19;17.20;99.90
23597;DHT22;40226;50.874;4.394;2023-05-07T08:19:47;17.30;99.90
23597;DHT22;40226;50.874;4.394;2023-05-07T08:22:13;17.00;99.90
23597;DHT22;40226;50.874;4.394;2023-05-07T08:24:39;17.00;99.90
23597;DHT22;40226;50.874;4.394;2023-05-07T08:27:05;17.10;99.90
23597;DHT22;40226;50.874;4.394;2023-05-07T08:29:31;17.40;99.90
23597;DHT22;40226;50.874;4.394;2023-05-07T08:31:56;17.50;99.90
23597;DHT22;40226;50.874;4.394;2023-05-07T08:34:22;17.60;99.90
23597;DHT22;40226;50.874;4.394;2023-05-07T08:36:48;17.50;99.90
23597;DHT22;40226;50.874;4.394;2023-05-07T08:39:15;17.50;99.90
23597;DHT22;40226;50.874;4.394;2023-05-07T08:41:44;17.50;99.90
23597;DHT22;40226;50.874;4.394;2023-05-07T08:44:12;17.70;99.90
23597;DHT22;40226;50.874;4.394;2023-05-07T08:46:39;17.90;99.90
23597;DHT22;40226;50.874;4.394;2023-05-07T08:49:07;17.90;99.90
23597;DHT22;40226;50.874;4.394;2023-05-07T08:51:33;17.90;99.90
23597;DHT22;40226;50.874;4.394;2023-05-07T08:53:59;17.50;99.90
23597;DHT22;40226;50.874;4.394;2023-05-07T08:56:26;17.60;99.90
23597;DHT22;40226;50.874;4.394;2023-05-07T08:58:52;17.80;99.90
23597;DHT22;40226;50.874;4.394;2023-05-07T09:01:21;17.90;99.90
23597;DHT22;40226;50.874;4.394;2023-05-07T09:03:47;17.70;99.90
23597;DHT22;40226;50.874;4.394;2023-05-07T09:06:13;17.50;99.90
23597;DHT22;40226;50.874;4.394;2023-05-07T09:08:39;17.40;99.90
23597;DHT22;40226;50.874;4.394;2023-05-07T09:11:05;17.50;99.90
23597;DHT22;40226;50.874;4.394;2023-05-07T09:13:30;17.50;99.90
23597;DHT22;40226;50.874;4.394;2023-05-07T09:15:56;17.70;99.90
23597;DHT22;40226;50.874;4.394;2023-05-07T09:18:24;17.90;99.90
23597;DHT22;40226;50.874;4.394;2023-05-07T09:20:51;18.20;99.90
23597;DHT22;40226;50.874;4.394;2023-05-07T09:23:16;18.40;99.90
23597;DHT22;40226;50.874;4.394;2023-05-07T09:25:42;18.60;99.90
23597;DHT22;40226;50.874;4.394;2023-05-07T09:28:08;18.60;99.90
23597;DHT22;40226;50.874;4.394;2023-05-07T09:30:35;18.70;99.90
23597;DHT22;40226;50.874;4.394;2023-05-07T09:33:03;18.70;99.90
23597;DHT22;40226;50.874;4.394;2023-05-07T09:35:30;18.60;99.90
23597;DHT22;40226;50.874;4.394;2023-05-07T09:38:00;18.50;99.90
23597;DHT22;40226;50.874;4.394;2023-05-07T09:40:28;18.30;99.90
23597;DHT22;40226;50.874;4.394;2023-05-07T09:42:55;18.30;99.90
23597;DHT22;40226;50.874;4.394;2023-05-07T09:45:27;18.20;99.90
23597;DHT22;40226;50.874;4.394;2023-05-07T09:47:55;17.80;99.90
23597;DHT22;40226;50.874;4.394;2023-05-07T09:50:34;18.10;99.90
23597;DHT22;40226;50.874;4.394;2023-05-07T09:53:01;18.30;99.90
23597;DHT22;40226;50.874;4.394;2023-05-07T09:55:28;18.50;99.90
23597;DHT22;40226;50.874;4.394;2023-05-07T09:57:54;18.60;99.90
23597;DHT22;40226;50.874;4.394;2023-05-07T10:00:21;18.70;99.90
23597;DHT22;40226;50.874;4.394;2023-05-07T10:02:52;18.90;99.90
23597;DHT22;40226;50.874;4.394;2023-05-07T10:05:21;19.10;99.90
23597;DHT22;40226;50.874;4.394;2023-05-07T10:07:48;19.00;99.90
23597;DHT22;40226;50.874;4.394;2023-05-07T10:10:14;18.70;99.90
23597;DHT22;40226;50.874;4.394;2023-05-07T10:12:41;18.50;99.90
23597;DHT22;40226;50.874;4.394;2023-05-07T10:15:08;18.70;99.90
23597;DHT22;40226;50.874;4.394;2023-05-07T10:17:40;19.00;99.90
23597;DHT22;40226;50.874;4.394;2023-05-07T10:20:07;19.10;99.90
23597;DHT22;40226;50.874;4.394;2023-05-07T10:22:38;19.20;99.90
23597;DHT22;40226;50.874;4.394;2023-05-07T10:25:09;19.10;99.90
23597;DHT22;40226;50.874;4.394;2023-05-07T10:27:40;19.10;99.90
23597;DHT22;40226;50.874;4.394;2023-05-07T10:32:49;19.30;99.90
23597;DHT22;40226;50.874;4.394;2023-05-07T10:35:20;19.60;99.90
23597;DHT22;40226;50.874;4.394;2023-05-07T10:37:47;19.20;99.90
23597;DHT22;40226;50.874;4.394;2023-05-07T10:40:13;19.00;99.90
23597;DHT22;40226;50.874;4.394;2023-05-07T10:42:56;18.80;99.90
23597;DHT22;40226;50.874;4.394;2023-05-07T10:45:22;18.60;99.90
23597;DHT22;40226;50.874;4.394;2023-05-07T10:48:13;18.60;99.90
23597;DHT22;40226;50.874;4.394;2023-05-07T10:50:43;18.80;99.90
23597;DHT22;40226;50.874;4.394;2023-05-07T10:55:48;18.70;99.90
23597;DHT22;40226;50.874;4.394;2023-05-07T10:58:29;18.70;99.90
23597;DHT22;40226;50.874;4.394;2023-05-07T11:01:01;19.00;99.90
23597;DHT22;40226;50.874;4.394;2023-05-07T11:03:28;19.20;99.90
23597;DHT22;40226;50.874;4.394;2023-05-07T11:06:15;19.00;99.90
23597;DHT22;40226;50.874;4.394;2023-05-07T11:11:18;19.20;99.90
23597;DHT22;40226;50.874;4.394;2023-05-07T11:13:46;19.40;99.90
23597;DHT22;40226;50.874;4.394;2023-05-07T11:16:23;19.50;99.90
23597;DHT22;40226;50.874;4.394;2023-05-07T11:18:53;19.50;99.90
23597;DHT22;40226;50.874;4.394;2023-05-07T11:24:00;19.50;99.90
23597;DHT22;40226;50.874;4.394;2023-05-07T11:26:28;19.70;99.90
23597;DHT22;40226;50.874;4.394;2023-05-07T11:28:53;19.80;99.90
23597;DHT22;40226;50.874;4.394;2023-05-07T11:31:22;19.50;99.90
23597;DHT22;40226;50.874;4.394;2023-05-07T11:33:49;19.50;99.90
23597;DHT22;40226;50.874;4.394;2023-05-07T11:36:15;19.90;99.90
23597;DHT22;40226;50.874;4.394;2023-05-07T11:38:41;20.00;99.90
23597;DHT22;40226;50.874;4.394;2023-05-07T11:41:07;19.40;99.90
23597;DHT22;40226;50.874;4.394;2023-05-07T11:43:33;19.60;99.90
23597;DHT22;40226;50.874;4.394;2023-05-07T11:46:11;19.70;99.90
23597;DHT22;40226;50.874;4.394;2023-05-07T11:48:38;19.90;99.70
23597;DHT22;40226;50.874;4.394;2023-05-07T11:51:05;20.10;93.60
23597;DHT22;40226;50.874;4.394;2023-05-07T11:53:39;20.10;88.90
23597;DHT22;40226;50.874;4.394;2023-05-07T11:56:10;19.60;98.90
23597;DHT22;40226;50.874;4.394;2023-05-07T11:58:37;19.60;98.40
23597;DHT22;40226;50.874;4.394;2023-05-07T12:01:03;19.40;99.90
23597;DHT22;40226;50.874;4.394;2023-05-07T12:03:28;19.00;99.90
23597;DHT22;40226;50.874;4.394;2023-05-07T12:05:54;19.40;99.90
23597;DHT22;40226;50.874;4.394;2023-05-07T12:08:21;19.60;99.90
23597;DHT22;40226;50.874;4.394;2023-05-07T12:10:50;19.90;99.90
23597;DHT22;40226;50.874;4.394;2023-05-07T12:13:21;20.40;92.00
23597;DHT22;40226;50.874;4.394;2023-05-07T12:15:50;20.70;52.30
23597;DHT22;40226;50.874;4.394;2023-05-07T12:18:16;20.50;76.40
23597;DHT22;40226;50.874;4.394;2023-05-07T12:20:42;20.80;53.80
23597;DHT22;40226;50.874;4.394;2023-05-07T12:23:08;21.00;8.10
23597;DHT22;40226;50.874;4.394;2023-05-07T12:25:38;20.70;13.60
23597;DHT22;40226;50.874;4.394;2023-05-07T12:28:07;20.60;28.40
23597;DHT22;40226;50.874;4.394;2023-05-07T12:30:40;21.00;29.10
23597;DHT22;40226;50.874;4.394;2023-05-07T12:33:06;21.40;1.00
23597;DHT22;40226;50.874;4.394;2023-05-07T12:35:39;21.20;1.00
23597;DHT22;40226;50.874;4.394;2023-05-07T12:38:09;21.20;1.00
23597;DHT22;40226;50.874;4.394;2023-05-07T12:40:47;21.60;1.00
23597;DHT22;40226;50.874;4.394;2023-05-07T12:43:26;21.20;1.00
23597;DHT22;40226;50.874;4.394;2023-05-07T12:45:54;20.90;1.00
23597;DHT22;40226;50.874;4.394;2023-05-07T12:48:21;20.40;14.90
23597;DHT22;40226;50.874;4.394;2023-05-07T12:50:53;20.40;4.90
23597;DHT22;40226;50.874;4.394;2023-05-07T12:53:21;20.20;9.00
23597;DHT22;40226;50.874;4.394;2023-05-07T12:55:49;20.30;27.40
23597;DHT22;40226;50.874;4.394;2023-05-07T13:00:53;20.60;19.80
23597;DHT22;40226;50.874;4.394;2023-05-07T13:03:23;21.00;1.00
23597;DHT22;40226;50.874;4.394;2023-05-07T13:05:49;21.30;1.00
23597;DHT22;40226;50.874;4.394;2023-05-07T13:08:36;21.40;1.00
23597;DHT22;40226;50.874;4.394;2023-05-07T13:11:09;21.30;1.00
23597;DHT22;40226;50.874;4.394;2023-05-07T13:13:36;21.70;1.00
23597;DHT22;40226;50.874;4.394;2023-05-07T13:16:03;21.50;1.00
23597;DHT22;40226;50.874;4.394;2023-05-07T13:18:30;21.30;1.00
23597;DHT22;40226;50.874;4.394;2023-05-07T13:20:56;21.70;1.00
23597;DHT22;40226;50.874;4.394;2023-05-07T13:23:22;21.40;1.00
23597;DHT22;40226;50.874;4.394;2023-05-07T13:25:49;21.50;1.00
23597;DHT22;40226;50.874;4.394;2023-05-07T13:28:14;21.30;1.00
23597;DHT22;40226;50.874;4.394;2023-05-07T13:30:40;21.50;1.00
23597;DHT22;40226;50.874;4.394;2023-05-07T13:33:06;21.20;1.00
23597;DHT22;40226;50.874;4.394;2023-05-07T13:35:32;21.30;1.00
23597;DHT22;40226;50.874;4.394;2023-05-07T13:37:58;20.70;1.00
23597;DHT22;40226;50.874;4.394;2023-05-07T13:40:24;20.40;1.00
23597;DHT22;40226;50.874;4.394;2023-05-07T13:42:50;20.20;1.00
23597;DHT22;40226;50.874;4.394;2023-05-07T13:45:17;20.20;14.50
23597;DHT22;40226;50.874;4.394;2023-05-07T13:47:43;20.40;9.80
23597;DHT22;40226;50.874;4.394;2023-05-07T13:50:10;20.70;1.00
23597;DHT22;40226;50.874;4.394;2023-05-07T13:52:37;20.30;6.00
23597;DHT22;40226;50.874;4.394;2023-05-07T13:55:03;20.20;28.10
23597;DHT22;40226;50.874;4.394;2023-05-07T13:57:29;20.10;26.60
23597;DHT22;40226;50.874;4.394;2023-05-07T13:59:55;20.00;60.20
23597;DHT22;40226;50.874;4.394;2023-05-07T14:02:21;20.30;33.50
23597;DHT22;40226;50.874;4.394;2023-05-07T14:04:46;20.60;17.20
23597;DHT22;40226;50.874;4.394;2023-05-07T14:07:12;20.80;1.00
23597;DHT22;40226;50.874;4.394;2023-05-07T14:09:38;21.00;1.00
23597;DHT22;40226;50.874;4.394;2023-05-07T14:12:03;21.20;1.00
23597;DHT22;40226;50.874;4.394;2023-05-07T14:14:30;21.50;1.00
23597;DHT22;40226;50.874;4.394;2023-05-07T14:16:56;21.60;1.00
23597;DHT22;40226;50.874;4.394;2023-05-07T14:19:22;21.10;1.00
23597;DHT22;40226;50.874;4.394;2023-05-07T14:21:48;20.90;1.00
23597;DHT22;40226;50.874;4.394;2023-05-07T14:24:14;20.80;1.00
23597;DHT22;40226;50.874;4.394;2023-05-07T14:26:40;20.80;1.00
23597;DHT22;40226;50.874;4.394;2023-05-07T14:29:05;21.10;1.00
23597;DHT22;40226;50.874;4.394;2023-05-07T14:31:31;21.50;1.00
23597;DHT22;40226;50.874;4.394;2023-05-07T14:33:58;21.80;1.00
23597;DHT22;40226;50.874;4.394;2023-05-07T14:36:24;21.90;1.00
23597;DHT22;40226;50.874;4.394;2023-05-07T14:38:52;21.90;1.00
23597;DHT22;40226;50.874;4.394;2023-05-07T14:41:19;22.10;1.00
23597;DHT22;40226;50.874;4.394;2023-05-07T14:43:46;22.10;1.00
23597;DHT22;40226;50.874;4.394;2023-05-07T14:46:18;22.10;1.00
23597;DHT22;40226;50.874;4.394;2023-05-07T14:48:46;22.20;1.00
23597;DHT22;40226;50.874;4.394;2023-05-07T14:51:13;22.10;1.00
23597;DHT22;40226;50.874;4.394;2023-05-07T14:53:40;22.00;1.00
23597;DHT22;40226;50.874;4.394;2023-05-07T14:56:06;21.40;1.00
23597;DHT22;40226;50.874;4.394;2023-05-07T14:58:32;21.20;1.00
23597;DHT22;40226;50.874;4.394;2023-05-07T15:00:58;21.50;1.00
23597;DHT22;40226;50.874;4.394;2023-05-07T15:03:24;21.70;1.00
23597;DHT22;40226;50.874;4.394;2023-05-07T15:05:50;21.80;1.00
23597;DHT22;40226;50.874;4.394;2023-05-07T15:08:17;21.90;1.00
23597;DHT22;40226;50.874;4.394;2023-05-07T15:10:43;21.80;1.00
23597;DHT22;40226;50.874;4.394;2023-05-07T15:13:10;21.80;1.00
23597;DHT22;40226;50.874;4.394;2023-05-07T15:15:41;21.50;1.00
23597;DHT22;40226;50.874;4.394;2023-05-07T15:18:26;21.50;1.00
23597;DHT22;40226;50.874;4.394;2023-05-07T15:20:55;21.70;1.00
23597;DHT22;40226;50.874;4.394;2023-05-07T15:23:22;21.80;1.00
23597;DHT22;40226;50.874;4.394;2023-05-07T15:25:47;22.00;1.00
23597;DHT22;40226;50.874;4.394;2023-05-07T15:28:14;21.50;1.00
23597;DHT22;40226;50.874;4.394;2023-05-07T15:30:39;21.30;1.00
23597;DHT22;40226;50.874;4.394;2023-05-07T15:33:05;20.90;1.00
23597;DHT22;40226;50.874;4.394;2023-05-07T15:35:31;20.50;1.00
23597;DHT22;40226;50.874;4.394;2023-05-07T15:37:56;20.80;1.00
23597;DHT22;40226;50.874;4.394;2023-05-07T15:40:22;21.10;1.00
23597;DHT22;40226;50.874;4.394;2023-05-07T15:42:48;20.90;1.00
23597;DHT22;40226;50.874;4.394;2023-05-07T15:45:14;20.50;1.00
23597;DHT22;40226;50.874;4.394;2023-05-07T15:47:40;20.30;1.00
23597;DHT22;40226;50.874;4.394;2023-05-07T15:50:06;20.10;17.30